Tuesday, September 30, 2014
13:58 UTC
  |  Log In   |  Register Free
Airport Search:

Akron-Canton Regional Airport
(KCAK)

Airport information sponsored by:
Ultimate Air Center at Akron-Canton Regional (KCAK), Akron, OH
FAA data valid effective September 18, 2014 - November 13, 2014 (unless otherwise noted).

 
 
 
 
 
 
 
 
 
 
 
 
 
 

Current Aviation Weather for Akron-Canton Regional Airport (KCAK)

The most recent METAR observation for KCAK was updated at: 1308
METAR Summary (Translated METAR)
KCAK
301251Z 32003KT 4SM HZ SCT060 SCT120 BKN250 16/13 A2991 RMK AO2 SLP124 T01610128
KAKR
301254Z AUTO 00000KT 5SM HZ FEW011 BKN060 17/13 A2991 RMK AO2 LTG DSNT W AND NW SLP124 T01670133
(7.4 nm NW from KCAK)
KBJJ
301256Z AUTO 29007KT 1 1/4SM +RA BR BKN009 BKN018 OVC046 15/13 A2995 RMK AO2 RAB44 SLP142 P0015 T01500133 TSNO
(20.3 nm SW from KCAK)
TAF Summary (Translated TAF)
KCAK
301136Z 3012/0112 VRB02KT 4SM BR BKN080 OVC250 FM301300 29006KT 4SM -RA BR SCT007 OVC040 TEMPO 3013/3017 2SM TSRA BR OVC007CB FM301700 33006KT P6SM BKN007 OVC012 FM302000 33006KT P6SM BKN012 OVC025 FM010200 35004KT 2SM BR OVC003
  Airport Weather Conditions for KCAK

 Current Weather at CAK
61° F
Mostly Cloudy with Haze
Northwest winds at 3.5 mph
CAK NOAA Radar

Pressure: 29.91 in
Humidity: 81%
Wind: Northwest at 3.5 MPH (3 KT)
Dew Point: 55.0°F
Visibility: 4.00 mi


Airport Weather Forecast for KCAK

Translated METAR and TAF for KCAK
Translated METAR for KCAK (1352 UTC 30 September 2014)
found at http://aviationweather.gov/adds/metars/
 
METAR text: KCAK 301336Z 30005KT 1SM RA BR SCT017 OVC055 16/13 A2995 RMK AO2 RAB25 P0011 RVRNO $
Conditions at: KCAK (AKRON , OH, US) observed 1336 UTC 30 September 2014
Temperature: 16.0°C (61°F)
Dewpoint: 13.0°C (55°F) [RH = 82%]
Pressure (altimeter): 29.95 inches Hg (1014.3 mb)
Winds: from the WNW (300 degrees) at 6 MPH (5 knots; 2.6 m/s)
Visibility: 1.00 miles (1.61 km)
Ceiling: 5500 feet AGL
Clouds: scattered clouds at 1700 feet AGL
overcast cloud deck at 5500 feet AGL
Weather: RA BR  (rain, mist)
SOME DATA ABOVE MAY BE INACCURATE!!!
"$" is an indication the sensor requires maintenance
Translated TAF for KCAK
Forecast for: KCAK (AKRON , OH, US)
TAF Text: KCAK 301341Z 3014/0112 30005KT 4SM -RA BR SCT006 OVC040
Forecast period: 1400 to 1700 UTC 30 September 2014
Forecast type: FROM: standard forecast or significant change
Winds: from the WNW (300 degrees) at 6 MPH (5 knots; 2.6 m/s)
Visibility: 4 miles (6 km)
Ceiling: 4000 feet AGL
Clouds: scattered clouds at 600 feet AGL
overcast cloud deck at 4000 feet AGL
Weather: -RA BR  (light rain, mist)
TAF Text: TEMPO 3014/3017 1SM -TSRA BR OVC006CB
Forecast period: 1400 to 1700 UTC 30 September 2014
Forecast type: TEMPORARY: The following changes expected for less than half the time period
Visibility: 1.00 miles (1.61 km)
Ceiling: 600 feet AGL
Clouds: overcast cloud deck at 600 feet AGL
Weather: -TSRA BR  (light rain associated with thunderstorm(s), mist)
TAF Text: FM301700 33008KT P6SM BKN007 OVC012
Forecast period: 1700 to 2000 UTC 30 September 2014
Forecast type: FROM: standard forecast or significant change
Winds: from the NNW (330 degrees) at 9 MPH (8 knots; 4.2 m/s)
Visibility: 6 or more miles (10+ km)
Ceiling: 700 feet AGL
Clouds: broken clouds at 700 feet AGL
overcast cloud deck at 1200 feet AGL
Weather: no significant weather forecast for this period
TAF Text: FM302000 33006KT P6SM BKN012 OVC025
Forecast period: 2000 UTC 30 September 2014 to 0200 UTC 01 October 2014
Forecast type: FROM: standard forecast or significant change
Winds: from the NNW (330 degrees) at 7 MPH (6 knots; 3.1 m/s)
Visibility: 6 or more miles (10+ km)
Ceiling: 1200 feet AGL
Clouds: broken clouds at 1200 feet AGL
overcast cloud deck at 2500 feet AGL
Weather: no significant weather forecast for this period
TAF Text: FM010200 35004KT 2SM BR OVC003
Forecast period: 0200 to 1200 UTC 01 October 2014
Forecast type: FROM: standard forecast or significant change
Winds: from the N (350 degrees) at 5 MPH (4 knots; 2.1 m/s)
Visibility: 2.00 miles (3.22 km)
Ceiling: 300 feet AGL
Clouds: overcast cloud deck at 300 feet AGL
Weather: BR  (mist)

Find All Airport Services Find A Hotel Find A Rental Car Find A Golf Course Find A Restaurant $100 Hamburger



FBO's on the Field
FBO Company Facility Photos Services Transportation Aviation Fuel Prices: Prices include tax
Catering Weather Repair Courtesy Rental Type 100LL JetA JetA+ MOGAS 8087
 
Ultimate Air Center

Ultimate Air Center logo
Currently rated 4.1 by 4 people
FS:
Last Updated: Sep-29
Login to update fuel prices
SS:
Contact Ultimate Air CenterMore FBO Information
 
McKinley Air, Inc.

Currently rated 4.4 by 4 people
FS:Phillips66
Last Updated: Sep-05
Login to update fuel prices
SS:
Contact McKinley Air, Inc.More FBO Information
 
Add another FBO Facility Photos Catering Weather Repair Courtesy Rental Type 100LL JetA JetA+ MOGAS 8087
Services Transportation Aviation Fuel Prices: Prices include tax


model-print
model-print
model-print
model-print